»·PEaware :: N432YY KRMN-KSAN

N432YY :: KRMN-KSAN

FLIGHT INFORMATION

Flight Status: Arrived
Operator: Privately registered:
United States
More flights under this callsign
Pilot: Dean C. (27429)
Aircraft: CESSNA T210 TURBO CENTURION
(T210)
More flights by this aircraft type
Origin: KRMN Stafford Regl
United States
Destination: KSAN San Diego Intl-Lindbergh
United States
More flights between these airports :: More routes between these airports
Route: +ROBNN V186 HAILE V66 MZB
File this flight plan on PilotEdge
Remarks: N / A
Altitude:
(Current/Filed)
6,000ft
Speed:
(Current/Filed)
165kts
Departed: 14-Jan-20 03:58 PM
Arrived: 14-Jan-20 04:23 PM
Distance/Time
Traveled:
1953nm/0:25
Distance/Time
To Go:
Arrived

Flight Plot

Page will automatically refresh every two minutes.

Flight plan parsing failed; only flown route is shown


Map Options




Map Legend


Flown Route
Filed Route
Departure Airport
Arrival Airport
Navaid (VOR, NDB)
Fix

Horizontal Profiles

Position Reports

Time Latitude Longitude Heading Altitude Ground
Speed
14-Jan-20 15:26 33.039293 -116.908026 275 1390ft 0kts
14-Jan-20 15:27 33.039293 -116.908026 275 1390ft 0kts
14-Jan-20 15:28 33.039293 -116.908026 275 1390ft 0kts
14-Jan-20 15:29 33.039293 -116.908026 275 1390ft 0kts
14-Jan-20 15:30 33.039293 -116.908026 275 1390ft 0kts
14-Jan-20 15:31 33.039293 -116.908026 275 1390ft 0kts
14-Jan-20 15:32 33.039293 -116.908026 275 1390ft 0kts
14-Jan-20 15:33 33.039293 -116.908026 275 1390ft 0kts
14-Jan-20 15:34 33.039293 -116.908026 275 1390ft 0kts
14-Jan-20 15:35 33.039293 -116.908026 275 1390ft 0kts
14-Jan-20 15:36 33.039293 -116.908026 275 1390ft 0kts
14-Jan-20 15:38 33.039293 -116.908026 275 1390ft 0kts
14-Jan-20 15:39 33.039293 -116.908026 275 1390ft 0kts
14-Jan-20 15:40 33.039293 -116.908026 275 1390ft 0kts
14-Jan-20 15:41 33.039293 -116.908026 275 1390ft 0kts
14-Jan-20 15:42 33.039293 -116.908026 275 1390ft 0kts
14-Jan-20 15:43 33.039293 -116.908026 275 1390ft 0kts
14-Jan-20 15:44 33.039293 -116.908026 275 1390ft 0kts
14-Jan-20 15:45 33.039293 -116.908026 275 1390ft 0kts
14-Jan-20 15:46 33.039293 -116.908026 275 1390ft 0kts
14-Jan-20 15:47 33.039293 -116.908026 275 1390ft 0kts
14-Jan-20 15:48 33.039293 -116.908026 275 1390ft 0kts
14-Jan-20 15:49 33.039293 -116.908026 275 1390ft 0kts
14-Jan-20 15:50 33.039293 -116.908026 275 1390ft 0kts
14-Jan-20 15:51 33.039293 -116.908026 275 1390ft 0kts
14-Jan-20 15:52 33.038814 -116.908049 97 1389ft 5kts
14-Jan-20 15:53 33.038626 -116.907206 243 1389ft 0kts
14-Jan-20 15:54 33.038626 -116.907206 243 1389ft 0kts
14-Jan-20 15:55 33.038626 -116.907206 243 1389ft 0kts
14-Jan-20 15:55 33.038626 -116.907206 243 1389ft 0kts
14-Jan-20 15:57 33.038462 -116.907427 181 1388ft 0kts
14-Jan-20 15:58 33.038642 -116.911812 280 1392ft 67kts
14-Jan-20 15:58 33.041991 -116.936168 279 1913ft 104kts
14-Jan-20 16:00 33.046989 -116.979632 281 2661ft 135kts
14-Jan-20 16:00 33.056697 -117.017147 289 3031ft 138kts
14-Jan-20 16:01 33.068930 -117.056931 304 3909ft 121kts
14-Jan-20 16:03 33.055464 -117.086393 172 4939ft 132kts
14-Jan-20 16:03 33.023466 -117.069151 156 5021ft 167kts
14-Jan-20 16:04 32.978454 -117.051722 170 5017ft 174kts
14-Jan-20 16:05 32.930922 -117.041337 178 5018ft 173kts
14-Jan-20 16:06 32.882834 -117.034819 173 5018ft 173kts
14-Jan-20 16:07 32.835388 -117.025688 173 5013ft 172kts
14-Jan-20 16:08 32.788340 -117.016911 156 5010ft 173kts
14-Jan-20 16:09 32.765856 -116.967996 106 5011ft 172kts
14-Jan-20 16:10 32.770664 -116.916129 54 5012ft 163kts
14-Jan-20 16:11 32.768405 -116.868075 148 5013ft 165kts
14-Jan-20 16:12 32.724785 -116.866873 191 5013ft 159kts
14-Jan-20 16:13 32.684091 -116.887408 232 4659ft 166kts
14-Jan-20 16:14 32.670480 -116.939026 268 4074ft 166kts
14-Jan-20 16:15 32.684462 -116.987760 287 3895ft 157kts
14-Jan-20 16:16 32.696299 -117.035078 286 3424ft 144kts
14-Jan-20 16:17 32.705583 -117.075267 283 2567ft 106kts
14-Jan-20 16:18 32.712330 -117.105120 285 1548ft 81kts
14-Jan-20 16:19 32.718624 -117.130813 289 999ft 88kts
14-Jan-20 16:20 32.725382 -117.156580 285 639ft 79kts
14-Jan-20 16:21 32.731275 -117.180241 282 36ft 58kts
14-Jan-20 16:22 32.733996 -117.188054 30 17ft 0kts
14-Jan-20 16:23 32.733996 -117.188054 30 17ft 0kts
14-Jan-20 16:24 32.733999 -117.188052 30 17ft 1kts
14-Jan-20 16:25 32.732182 -117.179122 93 19ft 16kts
14-Jan-20 16:26 32.732863 -117.179807 280 19ft 0kts

Navigation Log

Ident Type
Flight plan parsing failed, navigation log unavailable